createdAt,value
2023-03-25T00:01:09.195Z,100.00
2023-03-25T00:03:41.820Z,100.00
2023-03-25T00:06:10.557Z,100.00
2023-03-25T00:08:37.247Z,100.00
2023-03-25T00:11:04.513Z,100.00
2023-03-25T00:13:34.153Z,100.00
2023-03-25T00:16:02.199Z,100.00
2023-03-25T00:18:33.572Z,100.00
2023-03-25T00:21:04.667Z,100.00
2023-03-25T00:23:32.152Z,100.00
2023-03-25T00:26:01.779Z,100.00
2023-03-25T00:28:33.324Z,100.00
2023-03-25T00:31:02.653Z,100.00
2023-03-25T00:33:29.783Z,100.00
2023-03-25T00:35:59.412Z,100.00
2023-03-25T00:38:33.376Z,100.00
2023-03-25T00:41:09.220Z,100.00
2023-03-25T00:43:35.704Z,100.00
2023-03-25T00:46:02.147Z,100.00
2023-03-25T00:48:28.626Z,100.00
2023-03-25T00:50:55.272Z,100.00
2023-03-25T00:53:21.725Z,100.00
2023-03-25T00:55:48.264Z,100.00
2023-03-25T00:58:14.848Z,100.00
2023-03-25T01:00:41.352Z,100.00
2023-03-25T01:03:09.759Z,100.00
2023-03-25T01:05:36.224Z,100.00
2023-03-25T01:08:02.744Z,100.00
2023-03-25T01:10:29.409Z,100.00
2023-03-25T01:12:56.417Z,100.00
2023-03-25T01:15:22.926Z,100.00
2023-03-25T01:17:49.476Z,100.00
2023-03-25T01:20:16.127Z,100.00
2023-03-25T01:22:42.573Z,100.00
2023-03-25T01:25:09.216Z,100.00
2023-03-25T01:27:36.236Z,100.00
2023-03-25T01:30:02.841Z,100.00
2023-03-25T01:32:29.666Z,100.00
2023-03-25T01:34:56.350Z,100.00
2023-03-25T01:37:25.591Z,100.00
2023-03-25T01:39:51.979Z,100.00
2023-03-25T01:42:18.586Z,100.00
2023-03-25T01:44:44.966Z,100.00
2023-03-25T01:47:11.470Z,100.00
2023-03-25T01:49:44.381Z,100.00
2023-03-25T01:52:21.272Z,100.00
2023-03-25T01:54:50.833Z,100.00
2023-03-25T01:57:21.947Z,100.00
2023-03-25T01:59:49.738Z,100.00
2023-03-25T02:02:18.853Z,100.00
2023-03-25T02:05:12.109Z,100.00
2023-03-25T02:07:43.043Z,100.00
2023-03-25T02:10:11.467Z,100.00
2023-03-25T02:12:37.867Z,100.00
2023-03-25T02:15:08.892Z,100.00
2023-03-25T02:18:08.046Z,100.00
2023-03-25T02:21:03.425Z,100.00
2023-03-25T02:23:59.239Z,100.00
2023-03-25T02:27:04.876Z,100.00
2023-03-25T02:29:49.457Z,100.00
2023-03-25T02:32:44.153Z,100.00
2023-03-25T02:35:16.325Z,100.00
2023-03-25T02:38:00.146Z,100.00
2023-03-25T02:40:31.833Z,100.00
2023-03-25T02:43:03.692Z,100.00
2023-03-25T02:45:34.414Z,100.00
2023-03-25T02:48:07.780Z,100.00
2023-03-25T02:50:43.696Z,100.00
2023-03-25T02:53:15.379Z,100.00
2023-03-25T02:55:43.892Z,100.00
2023-03-25T02:58:16.730Z,100.00
2023-03-25T03:00:43.518Z,100.00
2023-03-25T03:03:11.005Z,100.00
2023-03-25T03:05:45.534Z,100.00
2023-03-25T03:08:19.086Z,100.00
2023-03-25T03:10:58.548Z,100.00
2023-03-25T03:13:40.253Z,100.00
2023-03-25T03:16:13.258Z,100.00
2023-03-25T03:18:51.935Z,100.00
2023-03-25T03:21:23.646Z,100.00
2023-03-25T03:24:06.056Z,100.00
2023-03-25T03:26:40.451Z,100.00
2023-03-25T03:29:40.405Z,100.00
2023-03-25T03:32:13.189Z,100.00
2023-03-25T03:34:51.228Z,100.00
2023-03-25T03:37:23.763Z,100.00
2023-03-25T03:39:53.117Z,100.00
2023-03-25T03:42:29.453Z,100.00
2023-03-25T03:45:02.455Z,100.00
2023-03-25T03:47:34.097Z,100.00
2023-03-25T03:50:09.271Z,100.00
2023-03-25T03:52:45.118Z,100.00
2023-03-25T03:55:19.029Z,100.00
2023-03-25T03:57:53.736Z,100.00
2023-03-25T04:00:28.860Z,100.00
2023-03-25T04:03:01.742Z,100.00
2023-03-25T04:05:31.056Z,100.00
2023-03-25T04:08:02.509Z,100.00
2023-03-25T04:10:59.174Z,100.00
2023-03-25T04:13:32.438Z,100.00
2023-03-25T04:16:00.323Z,100.00
2023-03-25T04:18:28.566Z,100.00
2023-03-25T04:20:55.758Z,100.00
2023-03-25T04:23:22.643Z,100.00
2023-03-25T04:25:55.424Z,100.00
2023-03-25T04:28:23.950Z,100.00
2023-03-25T04:30:55.503Z,100.00
2023-03-25T04:33:23.039Z,100.00
2023-03-25T04:35:51.125Z,100.00
2023-03-25T04:38:19.198Z,100.00
2023-03-25T04:40:48.851Z,100.00
2023-03-25T04:43:16.662Z,100.00
2023-03-25T04:45:49.657Z,100.00
2023-03-25T04:48:25.972Z,100.00
2023-03-25T04:50:52.444Z,100.00
2023-03-25T04:53:18.979Z,100.00
2023-03-25T04:55:48.140Z,100.00
2023-03-25T04:58:15.950Z,100.00
2023-03-25T05:00:44.905Z,100.00
2023-03-25T05:03:11.813Z,100.00
2023-03-25T05:05:38.524Z,100.00
2023-03-25T05:08:05.083Z,100.00
2023-03-25T05:10:31.682Z,100.00
2023-03-25T05:13:03.808Z,100.00
2023-03-25T05:15:35.198Z,100.00
2023-03-25T05:18:02.498Z,100.00
2023-03-25T05:20:29.008Z,100.00
2023-03-25T05:22:57.400Z,100.00
2023-03-25T05:25:23.994Z,100.00
2023-03-25T05:27:50.389Z,100.00
2023-03-25T05:30:17.114Z,100.00
2023-03-25T05:32:45.808Z,100.00
2023-03-25T05:35:12.608Z,100.00
2023-03-25T05:37:38.995Z,100.00
2023-03-25T05:40:14.572Z,100.00
2023-03-25T05:42:46.824Z,100.00
2023-03-25T05:45:13.280Z,100.00
2023-03-25T05:47:40.228Z,100.00
2023-03-25T05:50:08.253Z,100.00
2023-03-25T05:52:36.641Z,100.00
2023-03-25T05:55:04.931Z,100.00
2023-03-25T05:57:31.441Z,100.00
2023-03-25T05:59:57.872Z,100.00
2023-03-25T06:02:24.356Z,100.00
2023-03-25T06:04:51.117Z,100.00
2023-03-25T06:07:20.759Z,100.00
2023-03-25T06:09:47.593Z,100.00
2023-03-25T06:12:16.685Z,100.00
2023-03-25T06:14:45.349Z,100.00
2023-03-25T06:17:24.449Z,100.00
2023-03-25T06:19:53.885Z,100.00
2023-03-25T06:22:21.977Z,100.00
2023-03-25T06:24:52.405Z,100.00
2023-03-25T06:27:19.845Z,100.00
2023-03-25T06:29:47.149Z,100.00
2023-03-25T06:32:14.511Z,100.00
2023-03-25T06:34:42.801Z,100.00
2023-03-25T06:37:10.162Z,100.00
2023-03-25T06:39:40.191Z,100.00
2023-03-25T06:42:07.410Z,100.00
2023-03-25T06:44:33.993Z,100.00
2023-03-25T06:47:02.396Z,100.00
2023-03-25T06:49:29.158Z,100.00
2023-03-25T06:51:55.600Z,100.00
2023-03-25T06:54:22.725Z,100.00
2023-03-25T06:56:49.307Z,100.00
2023-03-25T06:59:15.870Z,100.00
2023-03-25T07:01:43.053Z,100.00
2023-03-25T07:04:09.624Z,100.00
2023-03-25T07:06:36.131Z,100.00
2023-03-25T07:09:03.047Z,100.00
2023-03-25T07:11:30.983Z,100.00
2023-03-25T07:13:57.719Z,100.00
2023-03-25T07:16:24.431Z,100.00
2023-03-25T07:18:51.481Z,100.00
2023-03-25T07:21:19.071Z,100.00
2023-03-25T07:23:45.542Z,100.00
2023-03-25T07:26:13.441Z,100.00
2023-03-25T07:28:40.792Z,100.00
2023-03-25T07:31:09.062Z,100.00
2023-03-25T07:33:36.551Z,100.00
2023-03-25T07:36:04.616Z,100.00
2023-03-25T07:38:31.073Z,100.00
2023-03-25T07:40:57.603Z,100.00
2023-03-25T07:43:24.229Z,100.00
2023-03-25T07:45:50.906Z,100.00
2023-03-25T07:48:17.413Z,100.00
2023-03-25T07:50:45.714Z,100.00
2023-03-25T07:53:12.120Z,100.00
2023-03-25T07:55:38.629Z,100.00
2023-03-25T07:58:05.217Z,100.00
2023-03-25T08:00:31.793Z,100.00
2023-03-25T08:02:58.381Z,100.00
2023-03-25T08:05:24.954Z,100.00
2023-03-25T08:07:52.716Z,100.00
2023-03-25T08:10:19.383Z,100.00
2023-03-25T08:12:46.047Z,100.00
2023-03-25T08:15:13.659Z,100.00
2023-03-25T08:17:40.734Z,100.00
2023-03-25T08:20:08.533Z,100.00
2023-03-25T08:22:36.223Z,100.00
2023-03-25T08:25:02.740Z,100.00
2023-03-25T08:27:29.232Z,100.00
2023-03-25T08:29:59.983Z,100.00
2023-03-25T08:32:28.002Z,100.00
2023-03-25T08:34:55.059Z,100.00
2023-03-25T08:37:22.275Z,100.00
2023-03-25T08:39:50.514Z,100.00
2023-03-25T08:42:17.425Z,100.00
2023-03-25T08:44:43.834Z,100.00
2023-03-25T08:47:10.350Z,100.00
2023-03-25T08:49:36.760Z,100.00
2023-03-25T08:52:04.320Z,100.00
2023-03-25T08:54:30.988Z,100.00
2023-03-25T08:56:57.493Z,100.00
2023-03-25T08:59:24.000Z,100.00
2023-03-25T09:01:50.616Z,100.00
2023-03-25T09:04:17.175Z,100.00
2023-03-25T09:06:47.886Z,100.00
2023-03-25T09:09:30.213Z,100.00
2023-03-25T09:11:56.910Z,100.00
2023-03-25T09:14:23.376Z,100.00
2023-03-25T09:16:49.825Z,100.00
2023-03-25T09:19:16.313Z,100.00
2023-03-25T09:21:42.779Z,100.00
2023-03-25T09:24:09.825Z,100.00
2023-03-25T09:26:37.004Z,100.00
2023-03-25T09:29:03.496Z,100.00
2023-03-25T09:31:30.486Z,100.00
2023-03-25T09:33:57.015Z,100.00
2023-03-25T09:36:23.377Z,100.00
2023-03-25T09:38:49.803Z,100.00
2023-03-25T09:42:01.707Z,100.00
2023-03-25T09:44:33.458Z,100.00
2023-03-25T09:47:01.985Z,100.00
2023-03-25T09:49:40.248Z,100.00
2023-03-25T09:52:13.154Z,100.00
2023-03-25T09:54:54.863Z,100.00
2023-03-25T09:57:27.161Z,100.00
2023-03-25T09:59:56.349Z,100.00
2023-03-25T10:03:01.381Z,98.05
2023-03-25T10:05:48.717Z,98.29
2023-03-25T10:08:27.472Z,100.00
2023-03-25T10:10:59.543Z,99.85
2023-03-25T10:13:44.784Z,96.04
2023-03-25T10:16:18.047Z,99.64
2023-03-25T10:18:55.202Z,96.58
2023-03-25T10:21:31.111Z,95.32
2023-03-25T10:24:19.517Z,88.92
2023-03-25T10:26:56.084Z,93.24
2023-03-25T10:29:30.391Z,90.30
2023-03-25T10:32:02.732Z,91.35
2023-03-25T10:34:39.130Z,87.57
2023-03-25T10:37:12.625Z,78.97
2023-03-25T10:39:45.356Z,80.68
2023-03-25T10:42:24.576Z,75.84
2023-03-25T10:44:51.256Z,78.18
2023-03-25T10:47:26.681Z,73.88
2023-03-25T10:49:55.227Z,75.26
2023-03-25T10:52:21.819Z,74.68
2023-03-25T10:54:53.437Z,69.10
2023-03-25T10:57:27.742Z,65.83
2023-03-25T11:00:01.584Z,66.10
2023-03-25T11:02:31.210Z,66.72
2023-03-25T11:05:01.844Z,64.22
2023-03-25T11:07:40.115Z,65.50
2023-03-25T11:10:11.435Z,63.96
2023-03-25T11:15:14.248Z,58.94
2023-03-25T11:17:43.999Z,61.76
2023-03-25T11:20:20.571Z,62.13
2023-03-25T11:22:51.416Z,64.88
2023-03-25T11:25:26.838Z,63.74
2023-03-25T11:27:58.208Z,63.85
2023-03-25T11:30:26.613Z,64.50
2023-03-25T11:33:03.174Z,63.25
2023-03-25T11:35:34.619Z,64.10
2023-03-25T11:38:12.929Z,63.98
2023-03-25T11:40:49.880Z,62.14
2023-03-25T11:43:23.801Z,58.57
2023-03-25T11:45:51.154Z,58.70
2023-03-25T11:48:21.999Z,57.15
2023-03-25T11:50:54.076Z,56.38
2023-03-25T11:53:22.556Z,57.00
2023-03-25T11:55:55.407Z,57.61
2023-03-25T11:58:28.553Z,58.41
2023-03-25T12:01:03.840Z,61.78
2023-03-25T12:03:35.240Z,62.76
2023-03-25T12:06:11.335Z,63.51
2023-03-25T12:08:57.725Z,62.89
2023-03-25T12:11:30.291Z,62.41
2023-03-25T12:14:10.943Z,64.17
2023-03-25T12:16:56.282Z,65.22
2023-03-25T12:19:59.327Z,63.85
2023-03-25T12:22:48.510Z,60.05
2023-03-25T12:25:36.868Z,59.97
2023-03-25T12:28:44.790Z,60.01
2023-03-25T12:31:42.052Z,69.44
2023-03-25T12:34:32.730Z,71.10
2023-03-25T12:37:45.297Z,72.40
2023-03-25T12:40:43.375Z,70.44
2023-03-25T12:43:38.178Z,68.50
2023-03-25T12:46:26.419Z,67.83
2023-03-25T12:49:13.528Z,66.50
2023-03-25T12:51:59.071Z,63.14
2023-03-25T12:54:56.365Z,60.98
2023-03-25T12:57:37.799Z,57.89
2023-03-25T13:00:29.328Z,58.65
2023-03-25T13:03:26.568Z,56.72
2023-03-25T13:06:30.464Z,54.95
2023-03-25T13:09:04.467Z,54.31
2023-03-25T13:11:41.007Z,48.94
2023-03-25T13:14:17.235Z,48.91
2023-03-25T13:16:45.500Z,48.45
2023-03-25T13:19:22.839Z,43.87
2023-03-25T13:22:05.707Z,43.98
2023-03-25T13:24:47.248Z,43.92
2023-03-25T13:27:14.416Z,44.36
2023-03-25T13:29:51.316Z,44.20
2023-03-25T13:32:23.467Z,44.46
2023-03-25T13:35:00.592Z,43.71
2023-03-25T13:37:36.273Z,42.08
2023-03-25T13:40:14.859Z,42.02
2023-03-25T13:43:06.335Z,41.18
2023-03-25T13:45:46.427Z,41.79
2023-03-25T13:48:23.666Z,42.38
2023-03-25T13:50:50.417Z,43.38
2023-03-25T13:53:50.328Z,42.08
2023-03-25T13:56:25.908Z,43.39
2023-03-25T13:59:38.222Z,42.00
2023-03-25T14:02:23.169Z,42.70
2023-03-25T14:05:10.765Z,41.55
2023-03-25T14:07:49.442Z,41.15
2023-03-25T14:10:29.301Z,41.36
2023-03-25T14:13:01.827Z,40.80
2023-03-25T14:15:33.789Z,40.94
2023-03-25T14:18:01.085Z,40.93
2023-03-25T14:20:34.465Z,40.63
2023-03-25T14:23:07.666Z,41.09
2023-03-25T14:25:44.440Z,42.83
2023-03-25T14:28:18.218Z,44.74
2023-03-25T14:30:45.669Z,44.62
2023-03-25T14:33:12.895Z,44.70
2023-03-25T14:35:41.117Z,44.75
2023-03-25T14:38:07.565Z,44.07
2023-03-25T14:40:58.966Z,43.50
2023-03-25T14:43:40.209Z,44.57
2023-03-25T14:46:19.063Z,44.29
2023-03-25T14:48:50.256Z,43.02
2023-03-25T14:51:27.532Z,41.76
2023-03-25T14:54:02.191Z,42.29
2023-03-25T14:56:35.813Z,42.09
2023-03-25T14:59:13.679Z,42.48
2023-03-25T15:01:42.687Z,42.91
2023-03-25T15:04:22.625Z,42.36
2023-03-25T15:06:49.272Z,44.00
2023-03-25T15:09:18.134Z,46.21
2023-03-25T15:11:54.549Z,46.62
2023-03-25T15:14:26.146Z,47.05
2023-03-25T15:17:00.168Z,47.13
2023-03-25T15:19:27.880Z,46.04
2023-03-25T15:21:57.315Z,45.59
2023-03-25T15:24:31.872Z,44.41
2023-03-25T15:27:01.925Z,43.95
2023-03-25T15:29:50.497Z,42.75
2023-03-25T15:32:38.138Z,41.99
2023-03-25T15:35:31.668Z,40.36
2023-03-25T15:38:32.928Z,39.36
2023-03-25T15:41:24.527Z,40.24
2023-03-25T15:44:11.340Z,38.74
2023-03-25T15:46:50.095Z,38.93
2023-03-25T15:50:02.165Z,38.56
2023-03-25T15:52:41.811Z,39.64
2023-03-25T15:55:13.678Z,39.15
2023-03-25T15:57:54.042Z,38.99
2023-03-25T16:00:26.502Z,39.62
2023-03-25T16:03:02.456Z,40.13
2023-03-25T16:05:31.472Z,40.77
2023-03-25T16:08:01.166Z,41.19
2023-03-25T16:10:39.587Z,41.70
2023-03-25T16:13:10.930Z,42.05
2023-03-25T16:15:38.933Z,42.71
2023-03-25T16:18:09.740Z,43.90
2023-03-25T16:20:37.116Z,44.50
2023-03-25T16:23:06.414Z,45.43
2023-03-25T16:25:38.706Z,48.77
2023-03-25T16:28:17.997Z,48.90
2023-03-25T16:30:51.349Z,48.79
2023-03-25T16:33:21.644Z,49.99
2023-03-25T16:36:15.064Z,51.63
2023-03-25T16:38:41.641Z,50.11
2023-03-25T16:41:12.770Z,50.50
2023-03-25T16:43:39.669Z,49.52
2023-03-25T16:46:09.067Z,49.46
2023-03-25T16:48:41.333Z,49.29
2023-03-25T16:51:17.588Z,49.14
2023-03-25T16:53:44.931Z,48.72
2023-03-25T16:56:14.628Z,48.75
2023-03-25T16:58:57.833Z,47.96
2023-03-25T17:01:25.434Z,48.74
2023-03-25T17:04:05.401Z,49.25
2023-03-25T17:06:35.505Z,50.03
2023-03-25T17:09:04.706Z,50.15
2023-03-25T17:11:32.878Z,49.98
2023-03-25T17:14:07.696Z,50.81
2023-03-25T17:16:36.719Z,50.96
2023-03-25T17:19:04.627Z,51.53
2023-03-25T17:21:34.061Z,52.07
2023-03-25T17:24:26.899Z,53.56
2023-03-25T17:27:04.147Z,52.60
2023-03-25T17:29:30.714Z,52.21
2023-03-25T17:31:59.166Z,52.91
2023-03-25T17:34:26.460Z,54.13
2023-03-25T17:36:58.421Z,55.75
2023-03-25T17:39:27.856Z,56.17
2023-03-25T17:42:03.120Z,55.75
2023-03-25T17:44:40.433Z,56.62
2023-03-25T17:47:12.343Z,56.08
2023-03-25T17:49:38.752Z,56.61
2023-03-25T17:52:05.151Z,56.80
2023-03-25T17:54:31.623Z,57.44
2023-03-25T17:56:58.056Z,58.00
2023-03-25T17:59:25.891Z,59.36
2023-03-25T18:01:53.380Z,59.67
2023-03-25T18:04:23.166Z,59.68
2023-03-25T18:06:50.186Z,59.39
2023-03-25T18:09:24.404Z,60.62
2023-03-25T18:11:53.871Z,61.84
2023-03-25T18:14:21.781Z,61.62
2023-03-25T18:16:48.956Z,62.51
2023-03-25T18:19:21.204Z,63.24
2023-03-25T18:21:47.657Z,63.74
2023-03-25T18:24:14.809Z,64.57
2023-03-25T18:26:43.462Z,64.97
2023-03-25T18:29:17.878Z,66.50
2023-03-25T18:31:44.353Z,66.24
2023-03-25T18:34:13.031Z,67.11
2023-03-25T18:36:40.233Z,66.87
2023-03-25T18:39:10.995Z,67.83
2023-03-25T18:41:37.432Z,68.52
2023-03-25T18:44:03.969Z,68.18
2023-03-25T18:46:30.394Z,69.22
2023-03-25T18:49:02.198Z,69.23
2023-03-25T18:51:31.715Z,70.23
2023-03-25T18:53:58.380Z,70.47
2023-03-25T18:56:25.403Z,70.57
2023-03-25T18:58:52.719Z,70.69
2023-03-25T19:01:20.546Z,71.24
2023-03-25T19:03:47.851Z,71.53
2023-03-25T19:06:14.824Z,72.06
2023-03-25T19:08:43.485Z,72.41
2023-03-25T19:11:19.944Z,73.19
2023-03-25T19:13:48.560Z,73.84
2023-03-25T19:16:15.524Z,75.03
2023-03-25T19:18:42.028Z,75.31
2023-03-25T19:21:08.875Z,75.72
2023-03-25T19:23:36.381Z,75.10
2023-03-25T19:26:03.395Z,75.36
2023-03-25T19:28:29.966Z,76.59
2023-03-25T19:31:00.516Z,77.12
2023-03-25T19:33:31.064Z,76.34
2023-03-25T19:36:01.168Z,76.65
2023-03-25T19:38:28.674Z,77.08
2023-03-25T19:41:06.732Z,78.11
2023-03-25T19:43:33.422Z,77.53
2023-03-25T19:46:00.879Z,77.45
2023-03-25T19:48:29.692Z,78.09
2023-03-25T19:50:56.335Z,78.15
2023-03-25T19:53:23.182Z,77.99
2023-03-25T19:55:51.444Z,78.14
2023-03-25T19:58:20.257Z,78.69
2023-03-25T20:00:47.533Z,78.58
2023-03-25T20:03:14.463Z,78.79
2023-03-25T20:05:41.991Z,79.12
2023-03-25T20:08:09.514Z,79.25
2023-03-25T20:10:39.021Z,80.14
2023-03-25T20:13:06.836Z,79.92
2023-03-25T20:15:33.465Z,80.08
2023-03-25T20:18:00.212Z,79.80
2023-03-25T20:20:26.737Z,79.63
2023-03-25T20:22:53.285Z,80.29
2023-03-25T20:25:20.073Z,80.32
2023-03-25T20:27:46.968Z,80.64
2023-03-25T20:30:16.667Z,80.90
2023-03-25T20:32:44.358Z,81.05
2023-03-25T20:35:14.084Z,80.84
2023-03-25T20:37:42.235Z,81.63
2023-03-25T20:40:11.958Z,81.85
2023-03-25T20:42:42.971Z,82.04
2023-03-25T20:45:12.307Z,81.71
2023-03-25T20:47:38.837Z,81.94
2023-03-25T20:50:07.722Z,82.03
2023-03-25T20:52:35.894Z,82.52
2023-03-25T20:55:02.579Z,82.50
2023-03-25T20:57:29.089Z,82.35
2023-03-25T20:59:56.487Z,82.83
2023-03-25T21:02:23.062Z,82.98
2023-03-25T21:04:49.587Z,83.15
2023-03-25T21:07:19.216Z,83.11
2023-03-25T21:09:49.577Z,83.93
2023-03-25T21:12:16.429Z,83.63
2023-03-25T21:14:42.895Z,83.40
2023-03-25T21:17:09.941Z,84.15
2023-03-25T21:19:36.649Z,84.19
2023-03-25T21:22:03.195Z,84.39
2023-03-25T21:24:31.308Z,84.16
2023-03-25T21:26:57.700Z,82.48
2023-03-25T21:29:24.087Z,82.33
2023-03-25T21:31:50.650Z,81.78
2023-03-25T21:34:17.190Z,81.42
2023-03-25T21:36:43.774Z,81.05
2023-03-25T21:39:10.548Z,81.27
2023-03-25T21:41:37.387Z,81.10
2023-03-25T21:44:05.334Z,80.80
2023-03-25T21:46:33.446Z,81.08
2023-03-25T21:49:01.356Z,81.05
2023-03-25T21:51:32.462Z,80.49
2023-03-25T21:54:00.292Z,80.95
2023-03-25T21:56:30.793Z,81.01
2023-03-25T21:58:57.765Z,79.97
2023-03-25T22:01:28.797Z,79.31
2023-03-25T22:03:57.229Z,79.35
2023-03-25T22:06:29.474Z,77.29
2023-03-25T22:09:03.682Z,77.27
2023-03-25T22:11:30.197Z,77.08
2023-03-25T22:13:57.446Z,76.31
2023-03-25T22:16:24.669Z,74.28
2023-03-25T22:18:51.649Z,73.34
2023-03-25T22:21:21.357Z,70.78
2023-03-25T22:23:49.969Z,70.29
2023-03-25T22:26:17.601Z,68.85
2023-03-25T22:28:44.717Z,68.56
2023-03-25T22:31:17.313Z,66.87
2023-03-25T22:33:44.402Z,67.38
2023-03-25T22:36:14.035Z,66.59
2023-03-25T22:38:44.414Z,66.16
2023-03-25T22:41:12.689Z,66.15
2023-03-25T22:43:39.652Z,66.32
2023-03-25T22:46:07.545Z,65.85
2023-03-25T22:48:34.976Z,65.63
2023-03-25T22:51:01.926Z,65.57
2023-03-25T22:53:28.474Z,65.59
2023-03-25T22:55:56.795Z,65.75
2023-03-25T22:58:28.036Z,65.11
2023-03-25T23:00:56.038Z,66.19
2023-03-25T23:03:23.819Z,66.26
2023-03-25T23:06:05.836Z,65.79
2023-03-25T23:08:35.108Z,66.64
2023-03-25T23:11:07.180Z,67.04
2023-03-25T23:13:34.563Z,67.32
2023-03-25T23:16:06.902Z,67.63
2023-03-25T23:18:34.376Z,68.10
2023-03-25T23:21:01.227Z,69.12
2023-03-25T23:23:28.874Z,69.74
2023-03-25T23:26:07.311Z,71.64
2023-03-25T23:28:36.712Z,72.63
2023-03-25T23:31:09.669Z,74.51
2023-03-25T23:33:36.771Z,74.70
2023-03-25T23:36:05.318Z,75.01
2023-03-25T23:38:32.606Z,75.25
2023-03-25T23:41:07.755Z,76.62
2023-03-25T23:43:34.886Z,77.56
2023-03-25T23:46:01.926Z,77.71
2023-03-25T23:48:29.184Z,79.06
2023-03-25T23:50:56.661Z,79.93
2023-03-25T23:53:27.360Z,80.70
2023-03-25T23:55:55.917Z,81.05
2023-03-25T23:58:25.126Z,82.44
